Terminal Aerodrome Forecast
Issued by NWS

Home | Current Version | Previous Version | Text Only | Print | Product List | Glossary On
Versions: 1 2 3 4 5 6 7 8 9 10 11 12 13 14 15 16 17
000
FTUS46 KMTR 261128
TAFOAK
TAF
KOAK 261128Z 2612/2718 24006KT P6SM OVC014
     FM261800 27008KT P6SM OVC014
     FM262100 30014KT P6SM FEW013
     FM270400 30010KT P6SM BKN009
     FM270700 26005KT P6SM OVC007=

USA.gov is the U.S. government's official web portal to all federal, state and local government web resources and services.